createdAt,value
2023-04-19T00:00:17.191Z,26.35
2023-04-19T00:01:17.188Z,26.36
2023-04-19T00:02:17.314Z,26.36
2023-04-19T00:03:17.376Z,26.37
2023-04-19T00:04:17.570Z,26.35
2023-04-19T00:05:17.238Z,26.35
2023-04-19T00:06:17.193Z,26.35
2023-04-19T00:07:17.228Z,26.33
2023-04-19T00:08:17.208Z,26.36
2023-04-19T00:09:17.207Z,26.37
2023-04-19T00:10:17.199Z,26.37
2023-04-19T00:11:17.200Z,26.37
2023-04-19T00:12:17.329Z,26.37
2023-04-19T00:13:17.225Z,26.37
2023-04-19T00:14:17.422Z,26.42
2023-04-19T00:15:17.195Z,26.43
2023-04-19T00:16:17.225Z,26.42
2023-04-19T00:17:17.194Z,26.43
2023-04-19T00:18:17.196Z,26.44
2023-04-19T00:19:17.217Z,26.44
2023-04-19T00:20:17.200Z,26.48
2023-04-19T00:21:17.190Z,26.47
2023-04-19T00:22:17.228Z,26.46
2023-04-19T00:23:17.189Z,26.46
2023-04-19T00:24:17.183Z,26.46
2023-04-19T00:25:17.189Z,26.51
2023-04-19T00:26:17.191Z,26.50
2023-04-19T00:27:17.192Z,26.48
2023-04-19T00:28:17.186Z,26.48
2023-04-19T00:29:17.212Z,26.50
2023-04-19T00:30:17.196Z,26.50
2023-04-19T00:31:17.216Z,26.51
2023-04-19T00:32:17.197Z,26.53
2023-04-19T00:33:17.202Z,26.50
2023-04-19T00:34:17.274Z,26.51
2023-04-19T00:35:17.227Z,26.53
2023-04-19T00:36:17.245Z,26.54
2023-04-19T00:37:17.263Z,26.53
2023-04-19T00:38:17.274Z,26.56
2023-04-19T00:39:17.290Z,26.56
2023-04-19T00:40:17.300Z,26.56
2023-04-19T00:41:17.319Z,26.56
2023-04-19T00:42:17.325Z,26.57
2023-04-19T00:43:17.353Z,26.57
2023-04-19T00:44:17.516Z,26.56
2023-04-19T00:45:17.382Z,26.58
2023-04-19T00:46:17.430Z,26.58
2023-04-19T00:47:17.385Z,26.56
2023-04-19T00:48:17.398Z,26.57
2023-04-19T00:49:17.406Z,26.57
2023-04-19T00:50:17.438Z,26.58
2023-04-19T00:51:17.428Z,26.58
2023-04-19T00:52:17.535Z,26.56
2023-04-19T00:53:17.455Z,26.57
2023-04-19T00:54:17.625Z,26.57
2023-04-19T00:55:17.475Z,26.56
2023-04-19T00:56:17.470Z,26.58
2023-04-19T00:57:17.485Z,26.58
2023-04-19T00:58:17.568Z,26.61
2023-04-19T00:59:17.506Z,26.61
2023-04-19T01:00:17.508Z,26.58
2023-04-19T01:01:17.568Z,26.60
2023-04-19T01:02:17.712Z,26.58
2023-04-19T01:03:17.703Z,26.60
2023-04-19T01:04:17.758Z,26.57
2023-04-19T01:05:17.553Z,26.57
2023-04-19T01:06:17.556Z,26.60
2023-04-19T01:07:17.561Z,26.61
2023-04-19T01:08:17.572Z,26.60
2023-04-19T01:09:17.580Z,26.58
2023-04-19T01:10:17.584Z,26.58
2023-04-19T01:11:17.590Z,26.61
2023-04-19T01:12:17.705Z,26.60
2023-04-19T01:13:17.627Z,26.58
2023-04-19T01:14:17.820Z,26.58
2023-04-19T01:15:17.647Z,26.60
2023-04-19T01:16:17.683Z,26.58
2023-04-19T01:17:17.702Z,26.60
2023-04-19T01:18:17.694Z,26.60
2023-04-19T01:19:17.709Z,26.61
2023-04-19T01:20:17.706Z,26.61
2023-04-19T01:21:17.724Z,26.60
2023-04-19T01:22:18.112Z,26.58
2023-04-19T01:23:18.117Z,26.60
2023-04-19T01:24:18.159Z,26.60
2023-04-19T01:25:18.167Z,26.60
2023-04-19T01:26:18.178Z,26.58
2023-04-19T01:27:18.171Z,26.61
2023-04-19T01:28:18.160Z,26.61
2023-04-19T01:29:18.157Z,26.60
2023-04-19T01:30:18.157Z,26.64
2023-04-19T01:31:18.210Z,26.60
2023-04-19T01:32:18.159Z,26.61
2023-04-19T01:33:18.200Z,26.60
2023-04-19T01:34:18.857Z,26.61
2023-04-19T01:35:18.160Z,26.61
2023-04-19T01:36:18.167Z,26.61
2023-04-19T01:37:18.162Z,26.60
2023-04-19T01:38:18.176Z,26.60
2023-04-19T01:39:18.162Z,26.61
2023-04-19T01:40:18.163Z,26.61
2023-04-19T01:41:18.163Z,26.60
2023-04-19T01:42:18.169Z,26.60
2023-04-19T01:43:18.179Z,26.63
2023-04-19T01:44:18.166Z,26.61
2023-04-19T01:45:18.166Z,26.64
2023-04-19T01:46:18.194Z,26.63
2023-04-19T01:47:20.857Z,26.61
2023-04-19T01:48:18.189Z,26.58
2023-04-19T01:49:18.196Z,26.61
2023-04-19T01:50:18.172Z,26.61
2023-04-19T01:51:18.180Z,26.61
2023-04-19T01:52:18.168Z,26.63
2023-04-19T01:53:18.184Z,26.63
2023-04-19T01:54:18.298Z,26.63
2023-04-19T01:55:18.176Z,26.61
2023-04-19T01:56:18.182Z,26.64
2023-04-19T01:57:18.172Z,26.61
2023-04-19T01:58:18.184Z,26.64
2023-04-19T01:59:18.181Z,26.61
2023-04-19T02:00:18.176Z,26.61
2023-04-19T02:01:18.208Z,26.61
2023-04-19T02:02:18.230Z,26.61
2023-04-19T02:03:18.374Z,26.60
2023-04-19T02:04:18.416Z,26.63
2023-04-19T02:05:18.137Z,26.60
2023-04-19T02:06:17.757Z,26.64
2023-04-19T02:07:17.750Z,26.61
2023-04-19T02:08:17.727Z,26.58
2023-04-19T02:09:17.734Z,26.61
2023-04-19T02:10:17.709Z,26.61
2023-04-19T02:11:17.683Z,26.64
2023-04-19T02:12:17.673Z,26.63
2023-04-19T02:13:17.658Z,26.60
2023-04-19T02:14:17.798Z,26.61
2023-04-19T02:15:17.631Z,26.61
2023-04-19T02:16:17.667Z,26.60
2023-04-19T02:17:17.627Z,26.64
2023-04-19T02:18:17.633Z,26.63
2023-04-19T02:19:18.371Z,26.63
2023-04-19T02:20:17.615Z,26.60
2023-04-19T02:21:17.619Z,26.60
2023-04-19T02:22:17.595Z,26.63
2023-04-19T02:23:17.582Z,26.58
2023-04-19T02:24:17.853Z,26.63
2023-04-19T02:25:18.382Z,26.58
2023-04-19T02:26:17.584Z,26.58
2023-04-19T02:27:17.568Z,26.60
2023-04-19T02:28:17.549Z,26.58
2023-04-19T02:29:17.546Z,26.61
2023-04-19T02:30:17.544Z,26.60
2023-04-19T02:31:17.550Z,26.61
2023-04-19T02:32:17.526Z,26.58
2023-04-19T02:33:17.521Z,26.61
2023-04-19T02:34:17.931Z,26.63
2023-04-19T02:35:17.503Z,26.64
2023-04-19T02:36:17.503Z,26.58
2023-04-19T02:37:17.591Z,26.63
2023-04-19T02:38:17.494Z,26.60
2023-04-19T02:39:17.485Z,26.60
2023-04-19T02:40:17.496Z,26.64
2023-04-19T02:41:17.518Z,26.61
2023-04-19T02:42:17.523Z,26.61
2023-04-19T02:43:17.518Z,26.64
2023-04-19T02:44:17.692Z,26.63
2023-04-19T02:45:17.547Z,26.63
2023-04-19T02:46:17.612Z,26.64
2023-04-19T02:47:17.559Z,26.63
2023-04-19T02:48:17.575Z,26.61
2023-04-19T02:49:17.590Z,26.61
2023-04-19T02:50:18.211Z,26.61
2023-04-19T02:51:17.612Z,26.63
2023-04-19T02:52:17.629Z,26.64
2023-04-19T02:53:17.659Z,26.58
2023-04-19T02:54:17.787Z,26.64
2023-04-19T02:55:17.641Z,26.63
2023-04-19T02:56:17.638Z,26.64
2023-04-19T02:57:17.641Z,26.64
2023-04-19T02:58:17.643Z,26.61
2023-04-19T02:59:17.654Z,26.63
2023-04-19T03:00:17.661Z,26.61
2023-04-19T03:01:17.709Z,26.64
2023-04-19T03:02:17.728Z,26.64
2023-04-19T03:03:17.758Z,26.61
2023-04-19T03:04:18.063Z,26.61
2023-04-19T03:05:17.723Z,26.63
2023-04-19T03:06:18.226Z,26.64
2023-04-19T03:07:17.735Z,26.60
2023-04-19T03:08:17.746Z,26.64
2023-04-19T03:09:18.187Z,26.61
2023-04-19T03:10:17.760Z,26.64
2023-04-19T03:11:17.767Z,26.63
2023-04-19T03:12:17.781Z,26.63
2023-04-19T03:13:17.799Z,26.60
2023-04-19T03:14:18.229Z,26.65
2023-04-19T03:15:18.230Z,26.63
2023-04-19T03:16:18.278Z,26.63
2023-04-19T03:17:18.275Z,26.60
2023-04-19T03:18:18.219Z,26.63
2023-04-19T03:19:18.214Z,26.63
2023-04-19T03:20:18.237Z,26.61
2023-04-19T03:21:18.213Z,26.61
2023-04-19T03:22:18.229Z,26.65
2023-04-19T03:23:18.216Z,26.63
2023-04-19T03:24:18.237Z,26.63
2023-04-19T03:25:18.233Z,26.60
2023-04-19T03:26:18.235Z,26.63
2023-04-19T03:27:18.227Z,26.63
2023-04-19T03:28:18.213Z,26.60
2023-04-19T03:29:18.215Z,26.63
2023-04-19T03:30:18.211Z,26.63
2023-04-19T03:31:18.275Z,26.64
2023-04-19T03:32:18.241Z,26.63
2023-04-19T03:33:18.218Z,26.64
2023-04-19T03:34:18.240Z,26.60
2023-04-19T03:35:18.219Z,26.63
2023-04-19T03:36:18.216Z,26.64
2023-04-19T03:37:18.219Z,26.61
2023-04-19T03:38:18.217Z,26.60
2023-04-19T03:39:18.226Z,26.61
2023-04-19T03:40:18.221Z,26.60
2023-04-19T03:41:18.249Z,26.61
2023-04-19T03:42:18.222Z,26.61
2023-04-19T03:43:18.220Z,26.58
2023-04-19T03:44:18.459Z,26.61
2023-04-19T03:45:18.274Z,26.60
2023-04-19T03:46:18.318Z,26.64
2023-04-19T03:47:18.230Z,26.61
2023-04-19T03:48:18.218Z,26.63
2023-04-19T03:49:18.224Z,26.61
2023-04-19T03:50:18.220Z,26.63
2023-04-19T03:51:18.222Z,26.61
2023-04-19T03:52:18.227Z,26.63
2023-04-19T03:53:18.221Z,26.61
2023-04-19T03:54:18.263Z,26.61
2023-04-19T03:55:18.247Z,26.61
2023-04-19T03:56:18.238Z,26.60
2023-04-19T03:57:18.279Z,26.60
2023-04-19T03:58:18.265Z,26.61
2023-04-19T03:59:18.282Z,26.64
2023-04-19T04:00:18.346Z,26.61
2023-04-19T04:01:18.292Z,26.60
2023-04-19T04:02:18.423Z,26.63
2023-04-19T04:03:19.046Z,26.61
2023-04-19T04:04:18.722Z,26.60
2023-04-19T04:05:18.459Z,26.61
2023-04-19T04:06:18.349Z,26.61
2023-04-19T04:07:18.400Z,26.61
2023-04-19T04:08:18.346Z,26.61
2023-04-19T04:09:18.359Z,26.61
2023-04-19T04:10:18.368Z,26.61
2023-04-19T04:11:18.397Z,26.63
2023-04-19T04:12:18.393Z,26.60
2023-04-19T04:13:18.436Z,26.63
2023-04-19T04:14:18.416Z,26.61
2023-04-19T04:15:18.422Z,26.61
2023-04-19T04:16:18.444Z,26.60
2023-04-19T04:17:18.448Z,26.63
2023-04-19T04:18:18.449Z,26.63
2023-04-19T04:19:18.453Z,26.60
2023-04-19T04:20:18.498Z,26.57
2023-04-19T04:21:18.471Z,26.60
2023-04-19T04:22:18.494Z,26.60
2023-04-19T04:23:18.499Z,26.58
2023-04-19T04:24:18.525Z,26.60
2023-04-19T04:25:19.981Z,26.61
2023-04-19T04:26:18.517Z,26.58
2023-04-19T04:27:18.516Z,26.58
2023-04-19T04:28:18.502Z,26.60
2023-04-19T04:29:18.525Z,26.58
2023-04-19T04:30:18.509Z,26.58
2023-04-19T04:31:18.583Z,26.61
2023-04-19T04:32:18.484Z,26.60
2023-04-19T04:33:18.480Z,26.64
2023-04-19T04:34:18.532Z,26.60
2023-04-19T04:35:18.459Z,26.61
2023-04-19T04:36:18.445Z,26.60
2023-04-19T04:37:18.430Z,26.61
2023-04-19T04:38:24.556Z,26.63
2023-04-19T04:39:18.403Z,26.60
2023-04-19T04:40:18.385Z,26.63
2023-04-19T04:41:18.365Z,26.61
2023-04-19T04:42:18.433Z,26.61
2023-04-19T04:43:18.921Z,26.65
2023-04-19T04:44:18.325Z,26.61
2023-04-19T04:45:18.557Z,26.61
2023-04-19T04:46:18.393Z,26.58
2023-04-19T04:47:18.292Z,26.61
2023-04-19T04:48:18.273Z,26.60
2023-04-19T04:49:18.285Z,26.61
2023-04-19T04:50:18.280Z,26.63
2023-04-19T04:51:18.277Z,26.61
2023-04-19T04:52:18.271Z,26.60
2023-04-19T04:53:18.278Z,26.65
2023-04-19T04:54:18.282Z,26.61
2023-04-19T04:55:18.278Z,26.61
2023-04-19T04:56:18.313Z,26.64
2023-04-19T04:57:18.283Z,26.60
2023-04-19T04:58:20.345Z,26.60
2023-04-19T04:59:18.288Z,26.61
2023-04-19T05:00:18.935Z,26.61
2023-04-19T05:01:18.382Z,26.60
2023-04-19T05:02:18.402Z,26.60
2023-04-19T05:03:18.329Z,26.63
2023-04-19T05:04:18.588Z,26.61
2023-04-19T05:05:18.277Z,26.58
2023-04-19T05:06:18.294Z,26.60
2023-04-19T05:07:18.294Z,26.61
2023-04-19T05:08:18.295Z,26.61
2023-04-19T05:09:18.288Z,26.60
2023-04-19T05:10:18.280Z,26.63
2023-04-19T05:11:18.290Z,26.63
2023-04-19T05:12:18.306Z,26.63
2023-04-19T05:13:18.283Z,26.61
2023-04-19T05:14:18.240Z,26.64
2023-04-19T05:15:17.868Z,26.61
2023-04-19T05:16:17.936Z,26.61
2023-04-19T05:17:17.888Z,26.63
2023-04-19T05:18:17.826Z,26.65
2023-04-19T05:19:17.812Z,26.64
2023-04-19T05:20:17.807Z,26.60
2023-04-19T05:21:17.799Z,26.64
2023-04-19T05:22:17.790Z,26.61
2023-04-19T05:23:17.769Z,26.58
2023-04-19T05:24:17.942Z,26.60
2023-04-19T05:25:17.742Z,26.61
2023-04-19T05:26:17.796Z,26.60
2023-04-19T05:27:17.733Z,26.63
2023-04-19T05:28:17.748Z,26.61
2023-04-19T05:29:17.696Z,26.63
2023-04-19T05:30:17.682Z,26.61
2023-04-19T05:31:17.747Z,26.64
2023-04-19T05:32:17.690Z,26.61
2023-04-19T05:33:17.708Z,26.60
2023-04-19T05:34:19.761Z,26.61
2023-04-19T05:35:18.300Z,26.63
2023-04-19T05:36:17.682Z,26.63
2023-04-19T05:37:17.658Z,26.61
2023-04-19T05:38:17.647Z,26.60
2023-04-19T05:39:17.643Z,26.64
2023-04-19T05:40:17.681Z,26.63
2023-04-19T05:41:17.624Z,26.63
2023-04-19T05:42:17.603Z,26.61
2023-04-19T05:43:17.611Z,26.60
2023-04-19T05:44:17.791Z,26.64
2023-04-19T05:45:18.316Z,26.64
2023-04-19T05:46:17.678Z,26.63
2023-04-19T05:47:18.322Z,26.64
2023-04-19T05:48:17.577Z,26.63
2023-04-19T05:49:17.576Z,26.61
2023-04-19T05:50:17.553Z,26.61
2023-04-19T05:51:17.561Z,26.63
2023-04-19T05:52:18.341Z,26.65
2023-04-19T05:53:18.319Z,26.65
2023-04-19T05:54:17.906Z,26.63
2023-04-19T05:55:17.636Z,26.63
2023-04-19T05:56:17.641Z,26.61
2023-04-19T05:57:17.626Z,26.63
2023-04-19T05:58:19.338Z,26.64
2023-04-19T05:59:18.403Z,26.61
2023-04-19T06:00:18.360Z,26.60
2023-04-19T06:01:18.143Z,26.61
2023-04-19T06:02:18.042Z,26.58
2023-04-19T06:03:18.147Z,26.61
2023-04-19T06:04:18.433Z,26.63
2023-04-19T06:05:18.023Z,26.63
2023-04-19T06:06:18.124Z,26.64
2023-04-19T06:07:30.941Z,26.63
2023-04-19T06:08:17.999Z,26.65
2023-04-19T06:09:17.948Z,26.67
2023-04-19T06:10:17.912Z,26.64
2023-04-19T06:11:26.570Z,26.67
2023-04-19T06:12:17.894Z,26.68
2023-04-19T06:13:17.962Z,26.67
2023-04-19T06:14:18.512Z,26.68
2023-04-19T06:15:17.867Z,26.70
2023-04-19T06:16:17.936Z,26.71
2023-04-19T06:17:17.879Z,26.67
2023-04-19T06:18:19.385Z,26.70
2023-04-19T06:19:17.987Z,26.71
2023-04-19T06:20:17.834Z,26.74
2023-04-19T06:21:17.839Z,26.71
2023-04-19T06:22:17.834Z,26.68
2023-04-19T06:23:19.807Z,26.68
2023-04-19T06:24:17.835Z,26.71
2023-04-19T06:25:17.999Z,26.73
2023-04-19T06:26:18.759Z,26.77
2023-04-19T06:27:17.730Z,26.73
2023-04-19T06:28:17.760Z,26.77
2023-04-19T06:29:17.814Z,26.74
2023-04-19T06:30:17.996Z,26.77
2023-04-19T06:31:17.817Z,26.77
2023-04-19T06:32:17.734Z,26.75
2023-04-19T06:33:17.683Z,26.80
2023-04-19T06:34:18.210Z,26.81
2023-04-19T06:35:17.650Z,26.81
2023-04-19T06:36:17.635Z,26.80
2023-04-19T06:37:17.660Z,26.81
2023-04-19T06:38:17.618Z,26.80
2023-04-19T06:39:18.026Z,26.85
2023-04-19T06:40:17.690Z,26.82
2023-04-19T06:41:17.581Z,26.85
2023-04-19T06:42:17.560Z,26.85
2023-04-19T06:43:18.142Z,26.85
2023-04-19T06:44:17.821Z,26.85
2023-04-19T06:45:18.010Z,26.85
2023-04-19T06:46:17.581Z,26.82
2023-04-19T06:47:17.527Z,26.87
2023-04-19T06:48:17.517Z,26.88
2023-04-19T06:49:17.491Z,26.88
2023-04-19T06:50:17.522Z,26.87
2023-04-19T06:51:17.499Z,26.88
2023-04-19T06:52:17.984Z,26.88
2023-04-19T06:53:17.499Z,26.87
2023-04-19T06:54:17.929Z,26.85
2023-04-19T06:55:17.548Z,26.88
2023-04-19T06:56:17.445Z,26.87
2023-04-19T06:57:17.449Z,26.87
2023-04-19T06:58:17.478Z,26.88
2023-04-19T06:59:17.545Z,26.88
2023-04-19T07:00:17.984Z,26.91
2023-04-19T07:01:17.527Z,26.88
2023-04-19T07:02:17.558Z,26.90
2023-04-19T07:03:17.655Z,26.90
2023-04-19T07:04:17.977Z,26.90
2023-04-19T07:05:17.478Z,26.90
2023-04-19T07:06:20.487Z,26.87
2023-04-19T07:07:17.722Z,26.88
2023-04-19T07:08:18.008Z,26.87
2023-04-19T07:09:17.915Z,26.88
2023-04-19T07:10:17.427Z,26.84
2023-04-19T07:11:17.515Z,26.87
2023-04-19T07:12:17.472Z,26.85
2023-04-19T07:13:17.413Z,26.87
2023-04-19T07:14:17.541Z,26.87
2023-04-19T07:15:17.376Z,26.84
2023-04-19T07:16:17.561Z,26.88
2023-04-19T07:17:17.363Z,26.87
2023-04-19T07:18:17.352Z,26.85
2023-04-19T07:19:17.364Z,26.84
2023-04-19T07:20:17.939Z,26.85
2023-04-19T07:21:17.949Z,26.87
2023-04-19T07:22:17.370Z,26.84
2023-04-19T07:23:17.504Z,26.82
2023-04-19T07:24:17.682Z,26.82
2023-04-19T07:25:17.478Z,26.81
2023-04-19T07:26:17.361Z,26.84
2023-04-19T07:27:17.361Z,26.84
2023-04-19T07:28:17.486Z,26.84
2023-04-19T07:29:17.389Z,26.80
2023-04-19T07:30:17.355Z,26.82
2023-04-19T07:31:17.367Z,26.82
2023-04-19T07:32:17.519Z,26.82
2023-04-19T07:33:17.435Z,26.81
2023-04-19T07:34:18.571Z,26.82
2023-04-19T07:35:17.363Z,26.82
2023-04-19T07:36:17.547Z,26.81
2023-04-19T07:37:18.376Z,26.81
2023-04-19T07:38:17.365Z,26.84
2023-04-19T07:39:17.521Z,26.82
2023-04-19T07:40:17.394Z,26.84
2023-04-19T07:41:17.414Z,26.81
2023-04-19T07:42:17.774Z,26.82
2023-04-19T07:43:17.380Z,26.82
2023-04-19T07:44:17.831Z,26.82
2023-04-19T07:45:17.373Z,26.81
2023-04-19T07:46:17.432Z,26.80
2023-04-19T07:47:17.386Z,26.82
2023-04-19T07:48:17.400Z,26.87
2023-04-19T07:49:17.491Z,26.81
2023-04-19T07:50:17.503Z,26.82
2023-04-19T07:51:17.375Z,26.84
2023-04-19T07:52:17.422Z,26.84
2023-04-19T07:53:17.372Z,26.85
2023-04-19T07:54:17.578Z,26.81
2023-04-19T07:55:17.523Z,26.84
2023-04-19T07:56:18.381Z,26.82
2023-04-19T07:57:17.796Z,26.84
2023-04-19T07:58:17.377Z,26.84
2023-04-19T07:59:18.002Z,26.82
2023-04-19T08:00:17.390Z,26.82
2023-04-19T08:01:17.431Z,26.84
2023-04-19T08:02:18.704Z,26.85
2023-04-19T08:03:17.576Z,26.84
2023-04-19T08:04:18.020Z,26.82
2023-04-19T08:05:17.807Z,26.84
2023-04-19T08:06:17.505Z,26.84
2023-04-19T08:07:17.511Z,26.85
2023-04-19T08:08:17.376Z,26.82
2023-04-19T08:09:17.390Z,26.81
2023-04-19T08:10:17.402Z,26.82
2023-04-19T08:11:17.419Z,26.85
2023-04-19T08:12:33.042Z,26.82
2023-04-19T08:13:17.408Z,26.84
2023-04-19T08:14:32.084Z,26.84
2023-04-19T08:15:52.331Z,26.85
2023-04-19T08:16:36.859Z,26.85
2023-04-19T08:17:23.912Z,26.84
2023-04-19T08:18:17.447Z,26.82
2023-04-19T08:19:17.384Z,26.85
2023-04-19T08:20:17.394Z,26.85
2023-04-19T08:21:17.398Z,26.85
2023-04-19T08:22:17.391Z,26.84
2023-04-19T08:23:24.516Z,26.85
2023-04-19T08:24:20.008Z,26.81
2023-04-19T08:25:17.510Z,26.82
2023-04-19T08:26:20.011Z,26.87
2023-04-19T08:27:17.515Z,26.84
2023-04-19T08:28:17.352Z,26.84
2023-04-19T08:29:17.709Z,26.85
2023-04-19T08:30:17.401Z,26.84
2023-04-19T08:31:17.037Z,26.85
2023-04-19T08:32:17.025Z,26.84
2023-04-19T08:33:17.011Z,26.85
2023-04-19T08:34:16.928Z,26.85
2023-04-19T08:35:17.406Z,26.87
2023-04-19T08:36:19.508Z,26.87
2023-04-19T08:37:17.884Z,26.84
2023-04-19T08:38:16.883Z,26.87
2023-04-19T08:39:29.246Z,26.87
2023-04-19T08:40:17.433Z,26.88
2023-04-19T08:41:16.827Z,26.88
2023-04-19T08:42:28.752Z,26.88
2023-04-19T08:43:17.416Z,26.88
2023-04-19T08:44:25.340Z,26.90
2023-04-19T08:45:27.854Z,26.90
2023-04-19T08:46:16.825Z,26.90
2023-04-19T08:47:27.271Z,26.90
2023-04-19T08:48:16.818Z,26.91
2023-04-19T08:49:16.941Z,26.91
2023-04-19T08:50:31.242Z,26.90
2023-04-19T08:51:19.528Z,26.90
2023-04-19T08:52:16.644Z,26.94
2023-04-19T08:53:25.647Z,26.94
2023-04-19T08:54:16.629Z,26.94
2023-04-19T08:55:17.414Z,26.94
2023-04-19T08:57:34.454Z,26.90
2023-04-19T08:58:52.101Z,26.94
2023-04-19T08:59:35.489Z,26.94
2023-04-19T09:00:35.670Z,26.92
2023-04-19T09:01:36.614Z,26.94
2023-04-19T09:02:36.050Z,26.95
2023-04-19T09:03:44.207Z,26.91
2023-04-19T09:04:37.376Z,26.97
2023-04-19T09:05:36.068Z,26.94
2023-04-19T09:06:35.759Z,26.97
2023-04-19T09:07:35.680Z,26.94
2023-04-19T09:08:35.430Z,26.94
2023-04-19T09:09:42.983Z,26.95
2023-04-19T09:10:35.416Z,26.95
2023-04-19T09:11:36.151Z,26.95
2023-04-19T09:12:35.644Z,26.95
2023-04-19T09:13:35.420Z,26.98
2023-04-19T09:14:35.418Z,26.97
2023-04-19T09:15:35.505Z,26.95
2023-04-19T09:16:35.459Z,26.98
2023-04-19T09:17:35.447Z,26.95
2023-04-19T09:18:39.983Z,26.99
2023-04-19T09:19:35.418Z,26.98
2023-04-19T09:20:35.654Z,26.98
2023-04-19T09:21:35.422Z,26.98
2023-04-19T09:22:35.429Z,26.99
2023-04-19T09:23:35.429Z,26.98
2023-04-19T09:24:57.281Z,26.98
2023-04-19T09:25:52.869Z,26.95
2023-04-19T09:26:35.448Z,26.98
2023-04-19T09:27:35.447Z,27.01
2023-04-19T09:28:35.445Z,26.99
2023-04-19T09:29:35.427Z,27.01
2023-04-19T09:30:43.409Z,26.99
2023-04-19T09:31:50.625Z,26.98
2023-04-19T09:32:35.564Z,26.97
2023-04-19T09:33:35.516Z,26.98
2023-04-19T09:34:35.120Z,27.01
2023-04-19T09:35:35.165Z,26.98
2023-04-19T09:36:35.179Z,26.98
2023-04-19T09:38:34.530Z,26.97
2023-04-19T09:39:35.067Z,26.97
2023-04-19T09:40:35.089Z,26.98
2023-04-19T09:41:36.873Z,26.99
2023-04-19T09:42:54.543Z,26.98
2023-04-19T09:43:53.779Z,26.97
2023-04-19T09:45:34.981Z,26.95
2023-04-19T09:46:35.219Z,26.95
2023-04-19T09:47:35.008Z,26.95
2023-04-19T09:48:35.053Z,26.95
2023-04-19T09:50:42.664Z,26.95
2023-04-19T09:51:35.147Z,26.94
2023-04-19T09:52:34.915Z,26.95
2023-04-19T09:53:35.242Z,26.97
2023-04-19T09:54:34.894Z,26.97
2023-04-19T09:55:48.981Z,26.97
2023-04-19T09:56:34.863Z,26.95
2023-04-19T09:57:34.850Z,26.94
2023-04-19T09:58:46.987Z,26.94
2023-04-19T09:59:34.835Z,26.97
2023-04-19T10:00:45.458Z,26.94
2023-04-19T10:01:34.807Z,26.94
2023-04-19T10:02:34.946Z,26.94
2023-04-19T10:03:34.971Z,26.94
2023-04-19T10:04:50.446Z,26.92
2023-04-19T10:05:35.604Z,26.94
2023-04-19T10:06:51.824Z,26.95
2023-04-19T10:07:34.886Z,26.95
2023-04-19T10:08:34.718Z,26.94
2023-04-19T10:09:40.045Z,26.97
2023-04-19T10:10:41.941Z,26.95
2023-04-19T10:11:35.197Z,26.95
2023-04-19T10:13:34.059Z,26.97
2023-04-19T10:14:34.654Z,26.95
2023-04-19T10:16:35.039Z,26.95
2023-04-19T10:17:37.703Z,26.94
2023-04-19T10:18:35.058Z,26.94
2023-04-19T10:19:34.598Z,26.97
2023-04-19T10:20:34.754Z,26.98
2023-04-19T10:21:35.462Z,26.95
2023-04-19T10:22:34.555Z,26.94
2023-04-19T10:23:34.545Z,26.98
2023-04-19T10:24:34.527Z,26.95
2023-04-19T10:25:34.662Z,26.95
2023-04-19T10:26:34.508Z,26.95
2023-04-19T10:27:34.487Z,26.95
2023-04-19T10:28:34.474Z,26.97
2023-04-19T10:29:34.467Z,26.98
2023-04-19T10:30:34.663Z,26.98
2023-04-19T10:31:34.528Z,26.98
2023-04-19T10:32:34.513Z,26.97
2023-04-19T10:33:34.538Z,26.99
2023-04-19T10:34:34.654Z,26.98
2023-04-19T10:35:34.679Z,26.98
2023-04-19T10:36:34.710Z,26.98
2023-04-19T10:37:34.730Z,26.98
2023-04-19T10:38:34.774Z,27.01
2023-04-19T10:39:34.839Z,26.98
2023-04-19T10:40:34.884Z,26.97
2023-04-19T10:41:34.924Z,27.02
2023-04-19T10:42:34.983Z,26.98
2023-04-19T10:43:35.049Z,27.01
2023-04-19T10:44:35.077Z,27.01
2023-04-19T10:45:35.131Z,26.99
2023-04-19T10:46:35.270Z,27.01
2023-04-19T10:47:35.242Z,27.01
2023-04-19T10:48:35.271Z,27.01
2023-04-19T10:49:35.312Z,26.99
2023-04-19T10:50:35.680Z,26.98
2023-04-19T10:51:35.406Z,27.02
2023-04-19T10:52:35.516Z,26.99
2023-04-19T10:53:36.181Z,27.01
2023-04-19T10:54:35.516Z,27.02
2023-04-19T10:55:35.566Z,27.01
2023-04-19T10:56:35.781Z,27.02
2023-04-19T10:57:35.656Z,27.01
2023-04-19T10:58:36.683Z,26.99
2023-04-19T10:59:35.747Z,26.99
2023-04-19T11:00:35.787Z,27.02
2023-04-19T11:01:35.891Z,27.02
2023-04-19T11:02:36.344Z,27.01
2023-04-19T11:03:36.127Z,27.02
2023-04-19T11:04:36.090Z,26.99
2023-04-19T11:05:36.049Z,27.01
2023-04-19T11:06:36.522Z,27.01
2023-04-19T11:07:36.487Z,27.02
2023-04-19T11:08:36.518Z,27.01
2023-04-19T11:09:36.512Z,27.01
2023-04-19T11:10:36.498Z,27.03
2023-04-19T11:11:36.511Z,27.03
2023-04-19T11:12:36.498Z,27.03
2023-04-19T11:13:36.489Z,27.03
2023-04-19T11:14:36.538Z,27.05
2023-04-19T11:15:36.568Z,27.03
2023-04-19T11:16:45.559Z,27.05
2023-04-19T11:17:37.239Z,27.03
2023-04-19T11:18:36.608Z,27.05
2023-04-19T11:19:36.556Z,27.05
2023-04-19T11:20:36.550Z,27.05
2023-04-19T11:21:36.543Z,27.06
2023-04-19T11:22:36.527Z,27.05
2023-04-19T11:23:36.513Z,27.06
2023-04-19T11:24:36.535Z,27.05
2023-04-19T11:25:36.494Z,27.08
2023-04-19T11:26:36.515Z,27.08
2023-04-19T11:27:36.495Z,27.08
2023-04-19T11:28:36.498Z,27.08
2023-04-19T11:29:36.514Z,27.09
2023-04-19T11:30:36.511Z,27.09
2023-04-19T11:31:36.579Z,27.11
2023-04-19T11:32:36.979Z,27.08
2023-04-19T11:33:37.184Z,27.08
2023-04-19T11:34:36.540Z,27.09
2023-04-19T11:35:36.547Z,27.09
2023-04-19T11:36:36.625Z,27.09
2023-04-19T11:37:36.747Z,27.08
2023-04-19T11:38:36.696Z,27.08
2023-04-19T11:39:36.729Z,27.09
2023-04-19T11:40:36.805Z,27.13
2023-04-19T11:41:37.695Z,27.11
2023-04-19T11:42:36.898Z,27.09
2023-04-19T11:43:36.918Z,27.12
2023-04-19T11:44:36.961Z,27.09
2023-04-19T11:45:39.531Z,27.11
2023-04-19T11:46:37.724Z,27.11
2023-04-19T11:47:37.034Z,27.12
2023-04-19T11:48:36.960Z,27.12
2023-04-19T11:49:36.948Z,27.12
2023-04-19T11:50:36.975Z,27.12
2023-04-19T11:51:36.931Z,27.13
2023-04-19T11:52:36.920Z,27.12
2023-04-19T11:53:36.925Z,27.12
2023-04-19T11:54:36.913Z,27.13
2023-04-19T11:55:36.884Z,27.13
2023-04-19T11:56:37.714Z,27.16
2023-04-19T11:57:36.894Z,27.13
2023-04-19T11:58:36.835Z,27.13
2023-04-19T11:59:37.552Z,27.15
2023-04-19T12:00:36.878Z,27.15
2023-04-19T12:01:37.524Z,27.16
2023-04-19T12:02:37.824Z,27.13
2023-04-19T12:03:37.290Z,27.15
2023-04-19T12:04:37.281Z,27.16
2023-04-19T12:05:37.143Z,27.15
2023-04-19T12:06:37.530Z,27.15
2023-04-19T12:07:37.480Z,27.16
2023-04-19T12:08:37.528Z,27.16
2023-04-19T12:09:37.526Z,27.13
2023-04-19T12:10:37.544Z,27.16
2023-04-19T12:11:37.710Z,27.16
2023-04-19T12:12:38.245Z,27.18
2023-04-19T12:13:37.548Z,27.18
2023-04-19T12:14:37.705Z,27.18
2023-04-19T12:15:37.532Z,27.16
2023-04-19T12:16:37.589Z,27.16
2023-04-19T12:17:40.074Z,27.16
2023-04-19T12:18:37.526Z,27.21
2023-04-19T12:19:37.529Z,27.18
2023-04-19T12:20:37.561Z,27.19
2023-04-19T12:21:37.533Z,27.16
2023-04-19T12:22:37.745Z,27.19
2023-04-19T12:23:37.549Z,27.18
2023-04-19T12:24:37.532Z,27.18
2023-04-19T12:25:37.543Z,27.16
2023-04-19T12:26:37.539Z,27.18
2023-04-19T12:27:37.553Z,27.21
2023-04-19T12:28:37.577Z,27.19
2023-04-19T12:29:37.534Z,27.18
2023-04-19T12:30:37.601Z,27.19
2023-04-19T12:31:38.529Z,27.21
2023-04-19T12:32:37.584Z,27.18
2023-04-19T12:33:37.531Z,27.19
2023-04-19T12:34:37.545Z,27.19
2023-04-19T12:35:37.541Z,27.19
2023-04-19T12:36:37.543Z,27.19
2023-04-19T12:37:37.548Z,27.21
2023-04-19T12:38:37.563Z,27.19
2023-04-19T12:39:37.548Z,27.19
2023-04-19T12:40:37.578Z,27.18
2023-04-19T12:41:37.546Z,27.21
2023-04-19T12:42:37.555Z,27.18
2023-04-19T12:43:37.666Z,27.15
2023-04-19T12:44:37.698Z,27.18
2023-04-19T12:45:37.762Z,27.16
2023-04-19T12:46:37.762Z,27.16
2023-04-19T12:47:37.821Z,27.19
2023-04-19T12:48:37.796Z,27.16
2023-04-19T12:49:37.850Z,27.18
2023-04-19T12:50:37.904Z,27.19
2023-04-19T12:51:37.943Z,27.18
2023-04-19T12:52:38.546Z,27.18
2023-04-19T12:53:38.014Z,27.18
2023-04-19T12:54:38.060Z,27.18
2023-04-19T12:55:38.100Z,27.18
2023-04-19T12:56:38.536Z,27.15
2023-04-19T12:57:38.717Z,27.18
2023-04-19T12:58:38.569Z,27.15